Time,TemperatureF,DewpointF,PressureIn,WindDirection,WindDirectionDegrees,WindSpeedMPH,WindSpeedGustMPH,Humidity,HourlyPrecipIn,Conditions,Clouds,dailyrainin,SolarRadiationWatts/m^2,SoftwareType,DateUTC
2013-03-19 00:02:00,34.0,23.0,-100.00,West,271,0.0,0.0,64,0.00,,,0.00,0.000000,,2013-03-19 07:02:00,
2013-03-19 00:32:00,31.0,22.0,-100.00,NNE,21,0.0,0.0,68,0.00,,,0.00,0.000000,,2013-03-19 07:32:00,
2013-03-19 00:42:00,31.0,22.0,-100.00,NNE,21,0.0,0.0,68,0.00,,,0.00,0.000000,,2013-03-19 07:42:00,
2013-03-19 00:52:00,31.0,22.0,-100.00,NNE,21,0.0,0.0,68,0.00,,,0.00,0.000000,,2013-03-19 07:52:00,
2013-03-19 01:02:00,31.0,22.0,-100.00,NNE,21,0.0,0.0,68,0.00,,,0.00,0.000000,,2013-03-19 08:02:00,
2013-03-19 01:32:00,29.0,19.0,-100.00,NNE,15,0.0,0.0,66,0.00,,,0.00,0.000000,,2013-03-19 08:32:00,
2013-03-19 01:42:00,29.0,19.0,-100.00,NNE,15,0.0,0.0,66,0.00,,,0.00,0.000000,,2013-03-19 08:42:00,
2013-03-19 01:52:00,29.0,19.0,-100.00,NNE,15,0.0,0.0,66,0.00,,,0.00,0.000000,,2013-03-19 08:52:00,
2013-03-19 02:02:00,29.0,19.0,-100.00,NNE,15,0.0,0.0,66,0.00,,,0.00,0.000000,,2013-03-19 09:02:00,
2013-03-19 02:33:00,29.0,20.0,-100.00,NNW,331,0.0,0.0,69,0.00,,,0.00,0.000000,,2013-03-19 09:33:00,
2013-03-19 02:43:00,29.0,20.0,-100.00,NNW,331,0.0,0.0,69,0.00,,,0.00,0.000000,,2013-03-19 09:43:00,
2013-03-19 02:53:00,29.0,20.0,-100.00,NNW,331,0.0,0.0,69,0.00,,,0.00,0.000000,,2013-03-19 09:53:00,
2013-03-19 03:03:00,29.0,20.0,-100.00,NNW,331,0.0,0.0,69,0.00,,,0.00,0.000000,,2013-03-19 10:03:00,
2013-03-19 03:33:00,31.0,21.0,-100.00,North,2,0.0,0.0,66,0.00,,,0.00,0.000000,,2013-03-19 10:33:00,
2013-03-19 03:42:00,31.0,21.0,-100.00,North,2,0.0,0.0,66,0.00,,,0.00,0.000000,,2013-03-19 10:42:00,
2013-03-19 03:53:00,31.0,21.0,-100.00,North,2,0.0,0.0,66,0.00,,,0.00,0.000000,,2013-03-19 10:53:00,
2013-03-19 04:02:00,31.0,21.0,-100.00,North,2,0.0,0.0,66,0.00,,,0.00,0.000000,,2013-03-19 11:02:00,
2013-03-19 04:33:00,32.0,22.0,-100.00,NNE,12,0.0,0.0,67,0.00,,,0.00,0.000000,,2013-03-19 11:33:00,
2013-03-19 04:43:00,32.0,22.0,-100.00,NNE,12,0.0,0.0,67,0.00,,,0.00,0.000000,,2013-03-19 11:43:00,
2013-03-19 04:52:00,32.0,22.0,-100.00,NNE,12,0.0,0.0,67,0.00,,,0.00,0.000000,,2013-03-19 11:52:00,
2013-03-19 05:02:00,32.0,22.0,-100.00,NNE,12,0.0,0.0,67,0.00,,,0.00,0.000000,,2013-03-19 12:02:00,
2013-03-19 06:33:00,33.0,25.0,-100.00,North,351,0.0,0.0,73,-99.99,,,0.00,0.000000,,2013-03-19 13:33:00,
2013-03-19 06:42:00,33.0,25.0,-100.00,North,351,0.0,0.0,73,-99.99,,,0.00,0.000000,,2013-03-19 13:42:00,
2013-03-19 06:52:00,33.0,25.0,-100.00,North,351,0.0,0.0,73,-99.99,,,0.00,0.000000,,2013-03-19 13:52:00,
2013-03-19 07:02:00,33.0,25.0,-100.00,North,351,0.0,0.0,73,-99.99,,,0.00,0.000000,,2013-03-19 14:02:00,
2013-03-19 07:33:00,34.0,26.0,-100.00,ENE,63,0.0,0.0,73,0.00,,,0.00,3.000000,,2013-03-19 14:33:00,
2013-03-19 07:42:00,34.0,26.0,-100.00,ENE,63,0.0,0.0,73,0.00,,,0.00,3.000000,,2013-03-19 14:42:00,
2013-03-19 07:52:00,34.0,26.0,-100.00,ENE,63,0.0,0.0,73,0.00,,,0.00,3.000000,,2013-03-19 14:52:00,
2013-03-19 08:02:00,34.0,26.0,-100.00,ENE,63,0.0,0.0,73,0.00,,,0.00,3.000000,,2013-03-19 15:02:00,
2013-03-19 08:34:00,36.0,29.0,-100.00,WNW,284,0.0,0.0,75,0.00,,,0.00,31.000000,,2013-03-19 15:34:00,
2013-03-19 08:44:00,36.0,29.0,-100.00,WNW,284,0.0,0.0,75,0.00,,,0.00,31.000000,,2013-03-19 15:44:00,
2013-03-19 08:53:00,36.0,29.0,-100.00,WNW,284,0.0,0.0,75,0.00,,,0.00,31.000000,,2013-03-19 15:53:00,
2013-03-19 09:03:00,36.0,29.0,-100.00,WNW,284,0.0,0.0,75,0.00,,,0.00,31.000000,,2013-03-19 16:03:00,
2013-03-19 09:34:00,47.0,33.0,-100.00,SSW,208,0.0,0.0,57,0.00,,,-99.99,210.000000,,2013-03-19 16:34:00,
2013-03-19 09:44:00,47.0,33.0,-100.00,SSW,208,0.0,0.0,57,0.00,,,-99.99,210.000000,,2013-03-19 16:44:00,
2013-03-19 09:54:00,47.0,33.0,-100.00,SSW,208,0.0,0.0,57,0.00,,,-99.99,210.000000,,2013-03-19 16:54:00,
2013-03-19 10:02:00,47.0,33.0,-100.00,SSW,208,0.0,0.0,57,0.00,,,-99.99,210.000000,,2013-03-19 17:02:00,
2013-03-19 10:35:00,52.0,23.0,-100.00,WSW,245,0.0,7.0,32,0.00,,,0.00,396.000000,,2013-03-19 17:35:00,
2013-03-19 10:44:00,52.0,23.0,-100.00,WSW,245,0.0,7.0,32,0.00,,,0.00,396.000000,,2013-03-19 17:44:00,
2013-03-19 10:53:00,52.0,23.0,-100.00,WSW,245,0.0,7.0,32,0.00,,,0.00,396.000000,,2013-03-19 17:53:00,
2013-03-19 11:02:00,52.0,23.0,-100.00,WSW,245,0.0,7.0,32,0.00,,,0.00,396.000000,,2013-03-19 18:02:00,
2013-03-19 11:34:00,55.0,21.0,-100.00,ESE,122,4.0,16.0,26,0.00,,,0.00,756.000000,,2013-03-19 18:34:00,
2013-03-19 11:43:00,55.0,21.0,-100.00,ESE,122,4.0,16.0,26,0.00,,,0.00,756.000000,,2013-03-19 18:43:00,
2013-03-19 11:53:00,55.0,21.0,-100.00,ESE,122,4.0,16.0,26,0.00,,,0.00,756.000000,,2013-03-19 18:53:00,
2013-03-19 12:02:00,55.0,21.0,-100.00,ESE,122,4.0,16.0,26,0.00,,,0.00,756.000000,,2013-03-19 19:02:00,
2013-03-19 12:33:00,55.0,19.0,-100.00,SSW,200,6.0,11.0,24,0.00,,,0.00,686.000000,,2013-03-19 19:33:00,
2013-03-19 12:43:00,55.0,19.0,-100.00,SSW,200,6.0,11.0,24,0.00,,,0.00,686.000000,,2013-03-19 19:43:00,
2013-03-19 12:53:00,55.0,19.0,-100.00,SSW,200,6.0,11.0,24,0.00,,,0.00,686.000000,,2013-03-19 19:53:00,
2013-03-19 13:02:00,55.0,19.0,-100.00,SSW,200,6.0,11.0,24,0.00,,,0.00,686.000000,,2013-03-19 20:02:00,
2013-03-19 13:33:00,55.0,18.0,-100.00,NNE,24,0.0,9.0,23,0.00,,,0.00,445.000000,,2013-03-19 20:33:00,
2013-03-19 13:43:00,55.0,18.0,-100.00,NNE,24,0.0,9.0,23,0.00,,,0.00,445.000000,,2013-03-19 20:43:00,
2013-03-19 13:52:00,55.0,18.0,-100.00,NNE,24,0.0,9.0,23,0.00,,,0.00,445.000000,,2013-03-19 20:52:00,
2013-03-19 14:02:00,55.0,18.0,-100.00,NNE,24,0.0,9.0,23,0.00,,,0.00,445.000000,,2013-03-19 21:02:00,
2013-03-19 14:34:00,53.0,18.0,-100.00,NE,50,9.0,15.0,25,0.00,,,0.00,240.000000,,2013-03-19 21:34:00,
2013-03-19 14:43:00,53.0,18.0,-100.00,NE,50,9.0,15.0,25,0.00,,,0.00,240.000000,,2013-03-19 21:43:00,
2013-03-19 14:53:00,53.0,18.0,-100.00,NE,50,9.0,15.0,25,0.00,,,0.00,240.000000,,2013-03-19 21:53:00,
2013-03-19 15:03:00,53.0,18.0,-100.00,NE,50,9.0,15.0,25,0.00,,,0.00,240.000000,,2013-03-19 22:03:00,
2013-03-19 15:33:00,56.0,21.0,-100.00,ENE,65,7.0,14.0,25,0.00,,,0.00,498.000000,,2013-03-19 22:33:00,
2013-03-19 15:43:00,56.0,21.0,-100.00,ENE,65,7.0,14.0,25,0.00,,,0.00,498.000000,,2013-03-19 22:43:00,
2013-03-19 15:53:00,56.0,21.0,-100.00,ENE,65,7.0,14.0,25,0.00,,,0.00,498.000000,,2013-03-19 22:53:00,
2013-03-19 16:02:00,56.0,21.0,-100.00,ENE,65,7.0,14.0,25,0.00,,,0.00,498.000000,,2013-03-19 23:02:00,
2013-03-19 16:33:00,56.0,19.0,-100.00,NNE,27,2.0,11.0,23,0.00,,,0.00,412.000000,,2013-03-19 23:33:00,
2013-03-19 16:43:00,56.0,19.0,-100.00,NNE,27,2.0,11.0,23,0.00,,,0.00,412.000000,,2013-03-19 23:43:00,
2013-03-19 16:52:00,56.0,19.0,-100.00,NNE,27,2.0,11.0,23,0.00,,,0.00,412.000000,,2013-03-19 23:52:00,
2013-03-19 17:02:00,56.0,19.0,-100.00,NNE,27,2.0,11.0,23,0.00,,,0.00,412.000000,,2013-03-20 00:02:00,
2013-03-19 17:33:00,58.0,18.0,-100.00,NE,36,2.0,8.0,21,0.00,,,-99.99,361.000000,,2013-03-20 00:33:00,
2013-03-19 17:42:00,58.0,18.0,-100.00,NE,36,2.0,8.0,21,0.00,,,-99.99,361.000000,,2013-03-20 00:42:00,
2013-03-19 17:52:00,58.0,18.0,-100.00,NE,36,2.0,8.0,21,0.00,,,-99.99,361.000000,,2013-03-20 00:52:00,
2013-03-19 18:02:00,58.0,18.0,-100.00,NE,36,2.0,8.0,21,0.00,,,-99.99,361.000000,,2013-03-20 01:02:00,
2013-03-19 18:32:00,54.0,19.0,-100.00,East,90,5.0,11.0,25,0.00,,,0.00,127.000000,,2013-03-20 01:32:00,
2013-03-19 18:43:00,54.0,19.0,-100.00,East,90,5.0,11.0,25,0.00,,,0.00,127.000000,,2013-03-20 01:43:00,
2013-03-19 18:52:00,54.0,19.0,-100.00,East,90,5.0,11.0,25,0.00,,,0.00,127.000000,,2013-03-20 01:52:00,
2013-03-19 19:02:00,54.0,19.0,-100.00,East,90,5.0,11.0,25,0.00,,,0.00,127.000000,,2013-03-20 02:02:00,
2013-03-19 19:32:00,48.0,17.0,-100.00,ENE,66,6.0,9.0,29,0.00,,,0.00,7.000000,,2013-03-20 02:32:00,
2013-03-19 19:43:00,48.0,17.0,-100.00,ENE,66,6.0,9.0,29,0.00,,,0.00,7.000000,,2013-03-20 02:43:00,
2013-03-19 19:53:00,48.0,17.0,-100.00,ENE,66,6.0,9.0,29,0.00,,,0.00,7.000000,,2013-03-20 02:53:00,
2013-03-19 20:01:00,48.0,17.0,-100.00,ENE,66,6.0,9.0,29,0.00,,,0.00,7.000000,,2013-03-20 03:01:00,
2013-03-19 20:34:00,44.0,17.0,-100.00,East,100,0.0,10.0,33,0.00,,,0.00,0.000000,,2013-03-20 03:34:00,
2013-03-19 20:43:00,44.0,17.0,-100.00,East,100,0.0,10.0,33,0.00,,,0.00,0.000000,,2013-03-20 03:43:00,
2013-03-19 20:53:00,44.0,17.0,-100.00,East,100,0.0,10.0,33,0.00,,,0.00,0.000000,,2013-03-20 03:53:00,
2013-03-19 21:02:00,44.0,17.0,-100.00,East,100,0.0,10.0,33,0.00,,,0.00,0.000000,,2013-03-20 04:02:00,
2013-03-19 21:32:00,38.0,19.0,-100.00,SW,235,0.0,0.0,46,0.00,,,0.00,0.000000,,2013-03-20 04:32:00,
2013-03-19 21:43:00,38.0,19.0,-100.00,SW,235,0.0,0.0,46,0.00,,,0.00,0.000000,,2013-03-20 04:43:00,
2013-03-19 21:52:00,38.0,19.0,-100.00,SW,235,0.0,0.0,46,0.00,,,0.00,0.000000,,2013-03-20 04:52:00,
2013-03-19 22:02:00,38.0,19.0,-100.00,SW,235,0.0,0.0,46,0.00,,,0.00,0.000000,,2013-03-20 05:02:00,
2013-03-19 22:33:00,31.0,19.0,-100.00,NW,313,0.0,0.0,61,0.00,,,0.00,0.000000,,2013-03-20 05:33:00,
2013-03-19 22:43:00,31.0,19.0,-100.00,NW,313,0.0,0.0,61,0.00,,,0.00,0.000000,,2013-03-20 05:43:00,
2013-03-19 22:53:00,31.0,19.0,-100.00,NW,313,0.0,0.0,61,0.00,,,0.00,0.000000,,2013-03-20 05:53:00,
2013-03-19 23:02:00,31.0,19.0,-100.00,NW,313,0.0,0.0,61,0.00,,,0.00,0.000000,,2013-03-20 06:02:00,
2013-03-19 23:32:00,29.0,19.0,-100.00,WSW,249,0.0,0.0,67,0.00,,,0.00,0.000000,,2013-03-20 06:32:00,
2013-03-19 23:43:00,29.0,19.0,-100.00,WSW,249,0.0,0.0,67,0.00,,,0.00,0.000000,,2013-03-20 06:43:00,
2013-03-19 23:52:00,29.0,19.0,-100.00,WSW,249,0.0,0.0,67,0.00,,,0.00,0.000000,,2013-03-20 06:52:00,